Air Navigation Services of Czech Republic  
Last data update:  08.08.2022 15:39:33 UTC česká verze
   METEO Page displayed:  08.08.2022 15:40:28 UTC  
vysvětlivky
METAR EDDB 081520Z AUTO VRB02KT CAVOK 27/06 Q1023 NOSIG=
METAR EDDC 081520Z AUTO 04007KT 330V070 CAVOK 26/06 Q1023 NOSIG=
METAR EDDE 081520Z AUTO 01007KT 330V040 CAVOK 26/06 Q1024 NOSIG=
METAR EDDF 081520Z 03010KT 340V060 CAVOK 30/05 Q1021 NOSIG=
METAR EDDM 081520Z AUTO VRB04KT CAVOK 25/10 Q1022 NOSIG=
METAR EDDN 081520Z AUTO 05006G24KT 340V130 CAVOK 28/06 Q1022 NOSIG=
METAR EDDP 081520Z 36006KT 310V060 CAVOK 27/10 Q1023 NOSIG=
METAR EDQM 081520Z 02008KT CAVOK 24/05 Q1024=
METAR EPBY 081530Z 01005KT 340V040 CAVOK 24/07 Q1024=
METAR EPGD 081530Z 08006KT 040V120 CAVOK 19/12 Q1026=
METAR EPKK 081530Z 06006KT 9999 SCT060 23/09 Q1023=
METAR EPKT 081530Z 03008KT 360V080 CAVOK 22/09 Q1023=
METAR EPLL 081530Z 06007KT 020V100 CAVOK 24/09 Q1024=
METAR EPPO 081530Z 04005KT 330V050 CAVOK 24/07 Q1024=
METAR EPRZ 081530Z 36010KT CAVOK 23/11 Q1022=
METAR EPWA 081530Z 04006KT 010V080 CAVOK 23/09 Q1024 NOSIG=
METAR EPWR 081530Z 04009KT 010V070 CAVOK 24/08 Q1024=
METAR LHBP 081530Z 33012KT CAVOK 25/15 Q1019 NOSIG=
METAR LHSM 081515Z AUTO 36013KT CAVOK 22/12 Q1021 NOSIG=
METAR LKBC NIL
METAR LKCS 081530Z AUTO 31007KT 9999 FEW065/// 24/09 Q1023=
METAR LKCV 081530Z 02006KT CAVOK 24/08 Q1023 NOSIG RMK BLU BLU=
METAR LKKB 081530Z 07005KT 010V120 CAVOK 24/08 Q1023 NOSIG RMK BLU BLU=
METAR LKKU 081400Z 35011KT CAVOK 24/11 Q1021=
METAR LKKV 081530Z 06006KT 020V120 CAVOK 24/05 Q1024=
METAR LKLN 081530Z AUTO VRB05KT CAVOK 25/05 Q1023=
METAR LKMT 081530Z 03012KT CAVOK 24/11 Q1022 NOSIG=
METAR LKNA 081530Z 05009KT 360V090 CAVOK 23/08 Q1023 NOSIG RMK BLU BLU=
METAR LKPD 081530Z 02005KT 310V120 CAVOK 25/08 Q1023 NOSIG RMK BLU BLU=
METAR LKPJ 081530Z AUTO 02007KT 350V070 9999 FEW058/// 24/10 Q1022=
METAR LKPR 081530Z VRB02KT CAVOK 23/08 Q1023 NOSIG=
METAR LKTB 081530Z 05007KT 020V080 CAVOK 24/09 Q1022 NOSIG=
METAR LKVO NIL
METAR LOWI 081520Z 08013KT 050V110 9999 FEW060 25/14 Q1021 NOSIG=
METAR LOWL 081520Z AUTO 14004KT 090V210 9999 FEW050 23/11 Q1023 NOSIG=
METAR LOWS 081520Z 02007KT 310V070 9999 FEW050 24/12 Q1022 NOSIG=
METAR LOWW 081520Z 25007KT CAVOK 17/14 Q1022 NOSIG=
METAR LZIB 081530Z 29008KT 9999 -SHRA FEW040TCU 20/13 Q1021 TEMPO SHRA FEW050CB=
METAR LZKZ 081530Z 01020KT CAVOK 23/13 Q1020 NOSIG=
METAR LZMC NIL
METAR LZPP 081530Z VRB01KT CAVOK 20/16 Q1021=
METAR LZSL NIL
METAR LZTT 081530Z 03010KT 9999 SCT063 19/10 Q1023 NOSIG=
METAR LZZI 081530Z 03007KT 9999 BKN059 22/12 Q1021=